This is the latest recevied weather packets stored in our database for station/object N1TKS. If no packets are shown the sender has not sent any weather packets the latest 10 day(s).
| Time | Temp. | Humidity | Pressure | Rain* | Wind** | Luminosity | Snow |
|---|---|---|---|---|---|---|---|
| 1777965470 | 11.67° C | 84% | 1010.6 hPa | 0 mm | - | - | - |
| 1777965415 | 11.67° C | 84% | 1010.6 hPa | 0 mm | - | - | - |
| 1777965219 | 12.22° C | 82% | 1010.7 hPa | 0 mm | - | - | - |
| 1777965186 | 11.67° C | 84% | 1010.6 hPa | 0 mm | - | - | - |
| 1777965112 | 11.67° C | 84% | 1010.6 hPa | 0 mm | - | - | - |
| 1777964964 | 11.67° C | 83% | 1010.6 hPa | 0 mm | - | - | - |
| 1777964813 | 11.67° C | 83% | 1010.6 hPa | 0 mm | - | - | - |
| 1777964514 | 12.22° C | 83% | 1010.6 hPa | 0 mm | - | - | - |
| 1777964214 | 12.22° C | 83% | 1010.7 hPa | 0 mm | - | - | - |
| 1777963950 | 12.22° C | 82% | 1010.7 hPa | 0 mm | - | - | - |
| 1777963913 | 12.22° C | 82% | 1010.7 hPa | 0 mm | - | - | - |
| 1777963613 | 12.22° C | 82% | 1010.7 hPa | 0 mm | - | - | - |
| 1777963304 | 12.78° C | 80% | 1010.8 hPa | 0 mm | - | - | - |
| 1777962449 | 12.78° C | 81% | 1010.7 hPa | 0 mm | - | - | - |
| 1777962414 | 12.78° C | 81% | 1010.7 hPa | 0 mm | - | - | - |
| 1777962114 | 12.78° C | 80% | 1010.8 hPa | 0 mm | - | - | - |
| 1777961813 | 12.78° C | 80% | 1010.8 hPa | 0 mm | - | - | - |
| 1777961384 | 13.33° C | 78% | 1010.8 hPa | 0 mm | - | - | - |
| 1777961255 | 13.33° C | 79% | 1010.7 hPa | 0 mm | - | - | - |
| 1777961213 | 13.33° C | 79% | 1010.7 hPa | 0 mm | - | - | - |
| 1777960914 | 13.33° C | 78% | 1010.7 hPa | 0 mm | - | - | - |
| 1777960613 | 13.33° C | 78% | 1010.7 hPa | 0 mm | - | - | - |
| 1777960014 | 13.33° C | 78% | 1010.8 hPa | 0 mm | - | - | - |
| 1777959468 | 13.89° C | 76% | 1011 hPa | 0 mm | - | - | - |
| 1777959417 | 13.33° C | 77% | 1010.9 hPa | 0 mm | - | - | - |
* Rain latest hour (hover to see other rain measurements)
** Current wind speed in m/s (hover to see current wind gust speed)